sensor_id;sensor_type;location;lat;lon;timestamp;P1;durP1;ratioP1;P2;durP2;ratioP2
77298;SDS011;66361;52.034;20.656;2023-02-01T00:01:53;8.98;;;5.80;;
77298;SDS011;66361;52.034;20.656;2023-02-01T00:05:58;7.72;;;4.90;;
77298;SDS011;66361;52.034;20.656;2023-02-01T00:10:05;9.27;;;5.68;;
77298;SDS011;66361;52.034;20.656;2023-02-01T00:14:10;2.13;;;1.83;;
77298;SDS011;66361;52.034;20.656;2023-02-01T00:18:14;9.00;;;6.45;;
77298;SDS011;66361;52.034;20.656;2023-02-01T00:22:18;3.35;;;2.60;;
77298;SDS011;66361;52.034;20.656;2023-02-01T00:26:22;6.28;;;3.10;;
77298;SDS011;66361;52.034;20.656;2023-02-01T00:30:32;7.28;;;4.28;;
77298;SDS011;66361;52.034;20.656;2023-02-01T00:34:36;8.82;;;4.50;;
77298;SDS011;66361;52.034;20.656;2023-02-01T00:38:41;6.85;;;5.13;;
77298;SDS011;66361;52.034;20.656;2023-02-01T00:42:45;4.50;;;3.50;;
77298;SDS011;66361;52.034;20.656;2023-02-01T00:46:49;12.65;;;4.18;;
77298;SDS011;66361;52.034;20.656;2023-02-01T00:50:52;7.72;;;4.65;;
77298;SDS011;66361;52.034;20.656;2023-02-01T00:54:57;4.63;;;3.65;;
77298;SDS011;66361;52.034;20.656;2023-02-01T00:59:00;6.32;;;2.97;;
77298;SDS011;66361;52.034;20.656;2023-02-01T01:03:04;8.95;;;3.58;;
77298;SDS011;66361;52.034;20.656;2023-02-01T01:07:18;5.65;;;3.10;;
77298;SDS011;66361;52.034;20.656;2023-02-01T01:11:24;5.60;;;3.75;;
77298;SDS011;66361;52.034;20.656;2023-02-01T01:15:35;2.42;;;2.15;;
77298;SDS011;66361;52.034;20.656;2023-02-01T01:19:39;5.53;;;2.40;;
77298;SDS011;66361;52.034;20.656;2023-02-01T01:27:48;4.43;;;2.90;;
77298;SDS011;66361;52.034;20.656;2023-02-01T01:31:52;3.20;;;2.00;;
77298;SDS011;66361;52.034;20.656;2023-02-01T01:35:56;5.93;;;2.17;;
77298;SDS011;66361;52.034;20.656;2023-02-01T01:40:03;3.13;;;2.17;;
77298;SDS011;66361;52.034;20.656;2023-02-01T01:48:56;9.45;;;2.30;;
77298;SDS011;66361;52.034;20.656;2023-02-01T01:53:04;5.63;;;2.65;;
77298;SDS011;66361;52.034;20.656;2023-02-01T01:57:16;6.97;;;2.03;;
77298;SDS011;66361;52.034;20.656;2023-02-01T02:01:22;6.22;;;2.42;;
77298;SDS011;66361;52.034;20.656;2023-02-01T02:05:27;4.20;;;1.85;;
77298;SDS011;66361;52.034;20.656;2023-02-01T02:09:30;2.33;;;1.25;;
77298;SDS011;66361;52.034;20.656;2023-02-01T02:13:34;4.07;;;3.05;;
77298;SDS011;66361;52.034;20.656;2023-02-01T02:17:42;6.03;;;3.20;;
77298;SDS011;66361;52.034;20.656;2023-02-01T02:22:08;6.68;;;2.70;;
77298;SDS011;66361;52.034;20.656;2023-02-01T02:26:36;4.20;;;2.03;;
77298;SDS011;66361;52.034;20.656;2023-02-01T02:30:57;3.13;;;2.05;;
77298;SDS011;66361;52.034;20.656;2023-02-01T02:35:28;8.93;;;2.40;;
77298;SDS011;66361;52.034;20.656;2023-02-01T02:39:46;4.55;;;2.00;;
77298;SDS011;66361;52.034;20.656;2023-02-01T02:43:56;5.47;;;1.90;;
77298;SDS011;66361;52.034;20.656;2023-02-01T02:48:20;3.38;;;2.08;;
77298;SDS011;66361;52.034;20.656;2023-02-01T02:52:29;1.48;;;1.23;;
77298;SDS011;66361;52.034;20.656;2023-02-01T02:56:51;4.18;;;1.92;;
77298;SDS011;66361;52.034;20.656;2023-02-01T03:05:40;6.50;;;1.80;;
77298;SDS011;66361;52.034;20.656;2023-02-01T03:09:46;3.95;;;2.47;;
77298;SDS011;66361;52.034;20.656;2023-02-01T03:13:52;6.22;;;2.13;;
77298;SDS011;66361;52.034;20.656;2023-02-01T03:17:58;7.55;;;2.70;;
77298;SDS011;66361;52.034;20.656;2023-02-01T03:22:05;3.17;;;1.98;;
77298;SDS011;66361;52.034;20.656;2023-02-01T03:26:13;3.65;;;1.67;;
77298;SDS011;66361;52.034;20.656;2023-02-01T03:30:22;7.13;;;2.08;;
77298;SDS011;66361;52.034;20.656;2023-02-01T03:34:28;5.30;;;1.77;;
77298;SDS011;66361;52.034;20.656;2023-02-01T03:38:32;3.00;;;1.65;;
77298;SDS011;66361;52.034;20.656;2023-02-01T03:42:43;4.45;;;1.83;;
77298;SDS011;66361;52.034;20.656;2023-02-01T03:46:53;7.55;;;3.08;;
77298;SDS011;66361;52.034;20.656;2023-02-01T03:51:00;4.85;;;2.22;;
77298;SDS011;66361;52.034;20.656;2023-02-01T03:55:07;9.65;;;2.70;;
77298;SDS011;66361;52.034;20.656;2023-02-01T03:59:12;6.40;;;2.47;;
77298;SDS011;66361;52.034;20.656;2023-02-01T04:03:16;4.95;;;2.50;;
77298;SDS011;66361;52.034;20.656;2023-02-01T04:07:19;9.32;;;3.25;;
77298;SDS011;66361;52.034;20.656;2023-02-01T04:11:23;6.95;;;2.72;;
77298;SDS011;66361;52.034;20.656;2023-02-01T04:15:27;5.50;;;2.45;;
77298;SDS011;66361;52.034;20.656;2023-02-01T04:19:31;3.15;;;1.00;;
77298;SDS011;66361;52.034;20.656;2023-02-01T04:23:34;3.78;;;1.52;;
77298;SDS011;66361;52.034;20.656;2023-02-01T04:27:37;5.32;;;2.25;;
77298;SDS011;66361;52.034;20.656;2023-02-01T04:31:44;9.07;;;2.25;;
77298;SDS011;66361;52.034;20.656;2023-02-01T04:35:51;3.67;;;2.25;;
77298;SDS011;66361;52.034;20.656;2023-02-01T04:39:54;3.97;;;1.75;;
77298;SDS011;66361;52.034;20.656;2023-02-01T04:43:57;5.82;;;2.20;;
77298;SDS011;66361;52.034;20.656;2023-02-01T04:48:02;2.92;;;1.70;;
77298;SDS011;66361;52.034;20.656;2023-02-01T04:52:05;6.47;;;2.25;;
77298;SDS011;66361;52.034;20.656;2023-02-01T04:56:08;10.07;;;2.40;;
77298;SDS011;66361;52.034;20.656;2023-02-01T05:00:12;6.28;;;2.25;;
77298;SDS011;66361;52.034;20.656;2023-02-01T05:04:17;2.28;;;1.52;;
77298;SDS011;66361;52.034;20.656;2023-02-01T05:08:20;5.00;;;1.52;;
77298;SDS011;66361;52.034;20.656;2023-02-01T05:12:24;1.65;;;1.27;;
77298;SDS011;66361;52.034;20.656;2023-02-01T05:16:44;7.90;;;1.98;;
77298;SDS011;66361;52.034;20.656;2023-02-01T05:20:49;6.25;;;2.10;;
77298;SDS011;66361;52.034;20.656;2023-02-01T05:24:52;4.10;;;1.85;;
77298;SDS011;66361;52.034;20.656;2023-02-01T05:28:55;8.85;;;2.13;;
77298;SDS011;66361;52.034;20.656;2023-02-01T05:37:03;5.63;;;2.60;;
77298;SDS011;66361;52.034;20.656;2023-02-01T05:41:06;7.40;;;2.08;;
77298;SDS011;66361;52.034;20.656;2023-02-01T05:45:11;5.57;;;1.77;;
77298;SDS011;66361;52.034;20.656;2023-02-01T05:49:14;7.53;;;2.08;;
77298;SDS011;66361;52.034;20.656;2023-02-01T05:53:18;6.72;;;2.70;;
77298;SDS011;66361;52.034;20.656;2023-02-01T05:57:22;4.22;;;1.63;;
77298;SDS011;66361;52.034;20.656;2023-02-01T06:01:25;4.15;;;3.10;;
77298;SDS011;66361;52.034;20.656;2023-02-01T06:05:28;3.88;;;2.40;;
77298;SDS011;66361;52.034;20.656;2023-02-01T06:09:32;6.50;;;1.50;;
77298;SDS011;66361;52.034;20.656;2023-02-01T06:13:36;5.38;;;2.00;;
77298;SDS011;66361;52.034;20.656;2023-02-01T06:17:39;2.75;;;1.98;;
77298;SDS011;66361;52.034;20.656;2023-02-01T06:21:47;10.10;;;2.15;;
77298;SDS011;66361;52.034;20.656;2023-02-01T06:25:52;3.30;;;2.28;;
77298;SDS011;66361;52.034;20.656;2023-02-01T06:30:00;6.15;;;2.20;;
77298;SDS011;66361;52.034;20.656;2023-02-01T06:34:03;5.57;;;1.95;;
77298;SDS011;66361;52.034;20.656;2023-02-01T06:38:06;6.20;;;2.10;;
77298;SDS011;66361;52.034;20.656;2023-02-01T06:42:11;2.95;;;1.95;;
77298;SDS011;66361;52.034;20.656;2023-02-01T06:46:14;5.22;;;1.67;;
77298;SDS011;66361;52.034;20.656;2023-02-01T06:50:17;4.70;;;1.58;;
77298;SDS011;66361;52.034;20.656;2023-02-01T06:54:22;8.55;;;2.05;;
77298;SDS011;66361;52.034;20.656;2023-02-01T06:58:29;1.02;;;0.98;;
77298;SDS011;66361;52.034;20.656;2023-02-01T07:02:33;2.95;;;2.17;;
77298;SDS011;66361;52.034;20.656;2023-02-01T07:06:36;7.45;;;2.38;;
77298;SDS011;66361;52.034;20.656;2023-02-01T07:10:39;6.47;;;1.73;;
77298;SDS011;66361;52.034;20.656;2023-02-01T07:14:43;7.43;;;2.03;;
77298;SDS011;66361;52.034;20.656;2023-02-01T07:18:47;6.25;;;1.92;;
77298;SDS011;66361;52.034;20.656;2023-02-01T07:22:54;5.38;;;1.73;;
77298;SDS011;66361;52.034;20.656;2023-02-01T07:26:58;7.97;;;2.22;;
77298;SDS011;66361;52.034;20.656;2023-02-01T07:31:03;3.92;;;2.28;;
77298;SDS011;66361;52.034;20.656;2023-02-01T07:35:07;3.17;;;1.95;;
77298;SDS011;66361;52.034;20.656;2023-02-01T07:39:10;4.53;;;3.03;;
77298;SDS011;66361;52.034;20.656;2023-02-01T07:43:13;4.28;;;1.65;;
77298;SDS011;66361;52.034;20.656;2023-02-01T07:47:18;12.07;;;2.50;;
77298;SDS011;66361;52.034;20.656;2023-02-01T07:51:21;6.35;;;2.33;;
77298;SDS011;66361;52.034;20.656;2023-02-01T07:55:25;7.75;;;3.72;;
77298;SDS011;66361;52.034;20.656;2023-02-01T08:03:32;6.15;;;2.28;;
77298;SDS011;66361;52.034;20.656;2023-02-01T08:07:37;11.57;;;2.78;;
77298;SDS011;66361;52.034;20.656;2023-02-01T08:11:40;7.88;;;2.13;;
77298;SDS011;66361;52.034;20.656;2023-02-01T08:15:43;4.28;;;2.00;;
77298;SDS011;66361;52.034;20.656;2023-02-01T08:19:48;3.08;;;1.20;;
77298;SDS011;66361;52.034;20.656;2023-02-01T08:23:51;12.60;;;3.08;;
77298;SDS011;66361;52.034;20.656;2023-02-01T08:27:54;3.58;;;2.22;;
77298;SDS011;66361;52.034;20.656;2023-02-01T08:31:57;8.30;;;2.55;;
77298;SDS011;66361;52.034;20.656;2023-02-01T08:36:04;8.38;;;2.80;;
77298;SDS011;66361;52.034;20.656;2023-02-01T08:40:09;3.90;;;1.77;;
77298;SDS011;66361;52.034;20.656;2023-02-01T08:44:14;7.30;;;2.60;;
77298;SDS011;66361;52.034;20.656;2023-02-01T08:48:17;2.65;;;2.00;;
77298;SDS011;66361;52.034;20.656;2023-02-01T08:52:21;4.68;;;2.35;;
77298;SDS011;66361;52.034;20.656;2023-02-01T08:56:25;5.47;;;2.53;;
77298;SDS011;66361;52.034;20.656;2023-02-01T09:00:29;13.65;;;3.25;;
77298;SDS011;66361;52.034;20.656;2023-02-01T09:04:31;4.40;;;1.92;;
77298;SDS011;66361;52.034;20.656;2023-02-01T09:08:36;4.85;;;2.10;;
77298;SDS011;66361;52.034;20.656;2023-02-01T09:12:42;9.88;;;3.65;;
77298;SDS011;66361;52.034;20.656;2023-02-01T09:16:45;7.45;;;2.95;;
77298;SDS011;66361;52.034;20.656;2023-02-01T09:20:48;6.78;;;1.77;;
77298;SDS011;66361;52.034;20.656;2023-02-01T09:24:53;5.90;;;3.40;;
77298;SDS011;66361;52.034;20.656;2023-02-01T09:28:58;9.45;;;2.83;;
77298;SDS011;66361;52.034;20.656;2023-02-01T09:33:02;4.47;;;2.40;;
77298;SDS011;66361;52.034;20.656;2023-02-01T09:37:06;9.20;;;3.20;;
77298;SDS011;66361;52.034;20.656;2023-02-01T09:41:16;9.02;;;2.40;;
77298;SDS011;66361;52.034;20.656;2023-02-01T09:45:36;5.10;;;2.03;;
77298;SDS011;66361;52.034;20.656;2023-02-01T09:49:49;5.00;;;2.85;;
77298;SDS011;66361;52.034;20.656;2023-02-01T09:53:59;8.52;;;2.92;;
77298;SDS011;66361;52.034;20.656;2023-02-01T09:58:09;3.70;;;2.70;;
77298;SDS011;66361;52.034;20.656;2023-02-01T10:02:20;8.18;;;3.40;;
77298;SDS011;66361;52.034;20.656;2023-02-01T10:06:30;6.32;;;2.60;;
77298;SDS011;66361;52.034;20.656;2023-02-01T10:10:40;7.65;;;2.75;;
77298;SDS011;66361;52.034;20.656;2023-02-01T10:14:54;6.63;;;2.15;;
77298;SDS011;66361;52.034;20.656;2023-02-01T10:19:10;3.42;;;2.30;;
77298;SDS011;66361;52.034;20.656;2023-02-01T10:23:33;7.65;;;2.95;;
77298;SDS011;66361;52.034;20.656;2023-02-01T10:27:49;2.78;;;1.75;;
77298;SDS011;66361;52.034;20.656;2023-02-01T10:31:56;3.42;;;2.60;;
77298;SDS011;66361;52.034;20.656;2023-02-01T10:36:00;7.30;;;4.05;;
77298;SDS011;66361;52.034;20.656;2023-02-01T10:40:12;3.22;;;1.58;;
77298;SDS011;66361;52.034;20.656;2023-02-01T10:44:22;5.82;;;2.22;;
77298;SDS011;66361;52.034;20.656;2023-02-01T10:48:29;8.57;;;3.28;;
77298;SDS011;66361;52.034;20.656;2023-02-01T10:52:36;9.45;;;4.10;;
77298;SDS011;66361;52.034;20.656;2023-02-01T11:00:48;8.23;;;4.05;;
77298;SDS011;66361;52.034;20.656;2023-02-01T11:05:02;4.40;;;2.25;;
77298;SDS011;66361;52.034;20.656;2023-02-01T11:09:14;9.60;;;4.68;;
77298;SDS011;66361;52.034;20.656;2023-02-01T11:13:22;9.93;;;3.35;;
77298;SDS011;66361;52.034;20.656;2023-02-01T11:17:39;6.65;;;3.58;;
77298;SDS011;66361;52.034;20.656;2023-02-01T11:25:54;6.90;;;3.47;;
77298;SDS011;66361;52.034;20.656;2023-02-01T11:30:00;6.65;;;3.95;;
77298;SDS011;66361;52.034;20.656;2023-02-01T11:34:06;7.70;;;3.25;;
77298;SDS011;66361;52.034;20.656;2023-02-01T11:38:21;5.03;;;2.53;;
77298;SDS011;66361;52.034;20.656;2023-02-01T11:42:29;7.70;;;2.80;;
77298;SDS011;66361;52.034;20.656;2023-02-01T11:46:35;13.02;;;3.10;;
77298;SDS011;66361;52.034;20.656;2023-02-01T11:50:40;4.55;;;3.05;;
77298;SDS011;66361;52.034;20.656;2023-02-01T11:54:58;6.72;;;2.55;;
77298;SDS011;66361;52.034;20.656;2023-02-01T11:59:17;8.63;;;3.15;;
77298;SDS011;66361;52.034;20.656;2023-02-01T12:03:33;6.95;;;2.83;;
77298;SDS011;66361;52.034;20.656;2023-02-01T12:08:10;8.70;;;3.17;;
77298;SDS011;66361;52.034;20.656;2023-02-01T12:12:28;8.15;;;3.10;;
77298;SDS011;66361;52.034;20.656;2023-02-01T12:16:45;6.15;;;3.45;;
77298;SDS011;66361;52.034;20.656;2023-02-01T12:21:05;12.43;;;4.93;;
77298;SDS011;66361;52.034;20.656;2023-02-01T12:25:19;9.63;;;4.03;;
77298;SDS011;66361;52.034;20.656;2023-02-01T12:29:47;13.50;;;4.13;;
77298;SDS011;66361;52.034;20.656;2023-02-01T12:34:05;18.95;;;5.70;;
77298;SDS011;66361;52.034;20.656;2023-02-01T12:38:26;10.05;;;3.95;;
77298;SDS011;66361;52.034;20.656;2023-02-01T12:42:39;8.10;;;3.42;;
77298;SDS011;66361;52.034;20.656;2023-02-01T12:46:50;10.25;;;4.38;;
77298;SDS011;66361;52.034;20.656;2023-02-01T12:50:57;4.13;;;2.47;;
77298;SDS011;66361;52.034;20.656;2023-02-01T12:55:07;11.82;;;4.25;;
77298;SDS011;66361;52.034;20.656;2023-02-01T12:59:21;5.22;;;3.33;;
77298;SDS011;66361;52.034;20.656;2023-02-01T13:03:34;7.65;;;5.57;;
77298;SDS011;66361;52.034;20.656;2023-02-01T13:07:42;9.95;;;4.07;;
77298;SDS011;66361;52.034;20.656;2023-02-01T13:11:51;8.80;;;4.03;;
77298;SDS011;66361;52.034;20.656;2023-02-01T13:16:02;8.23;;;3.80;;
77298;SDS011;66361;52.034;20.656;2023-02-01T13:20:22;7.80;;;4.38;;
77298;SDS011;66361;52.034;20.656;2023-02-01T13:24:32;8.57;;;4.13;;
77298;SDS011;66361;52.034;20.656;2023-02-01T13:28:40;9.30;;;4.03;;
77298;SDS011;66361;52.034;20.656;2023-02-01T13:32:53;4.13;;;3.03;;
77298;SDS011;66361;52.034;20.656;2023-02-01T13:37:45;6.95;;;2.63;;
77298;SDS011;66361;52.034;20.656;2023-02-01T13:42:02;6.32;;;3.45;;
77298;SDS011;66361;52.034;20.656;2023-02-01T13:46:14;3.60;;;2.53;;
77298;SDS011;66361;52.034;20.656;2023-02-01T13:50:21;9.15;;;2.97;;
77298;SDS011;66361;52.034;20.656;2023-02-01T13:54:36;5.63;;;2.72;;
77298;SDS011;66361;52.034;20.656;2023-02-01T13:58:42;5.93;;;2.90;;
77298;SDS011;66361;52.034;20.656;2023-02-01T14:02:47;5.13;;;2.42;;
77298;SDS011;66361;52.034;20.656;2023-02-01T14:06:55;6.80;;;2.53;;
77298;SDS011;66361;52.034;20.656;2023-02-01T14:11:00;6.55;;;2.90;;
77298;SDS011;66361;52.034;20.656;2023-02-01T14:15:16;5.53;;;2.70;;
77298;SDS011;66361;52.034;20.656;2023-02-01T14:19:26;5.38;;;2.47;;
77298;SDS011;66361;52.034;20.656;2023-02-01T14:23:30;4.13;;;1.58;;
77298;SDS011;66361;52.034;20.656;2023-02-01T14:27:44;4.82;;;2.70;;
77298;SDS011;66361;52.034;20.656;2023-02-01T14:31:54;6.50;;;2.65;;
77298;SDS011;66361;52.034;20.656;2023-02-01T14:36:07;11.05;;;3.72;;
77298;SDS011;66361;52.034;20.656;2023-02-01T14:40:15;5.95;;;4.20;;
77298;SDS011;66361;52.034;20.656;2023-02-01T14:44:25;3.58;;;2.42;;
77298;SDS011;66361;52.034;20.656;2023-02-01T14:48:41;4.38;;;3.75;;
77298;SDS011;66361;52.034;20.656;2023-02-01T14:52:49;3.38;;;2.42;;
77298;SDS011;66361;52.034;20.656;2023-02-01T14:57:10;5.47;;;2.60;;
77298;SDS011;66361;52.034;20.656;2023-02-01T15:01:22;9.05;;;3.65;;
77298;SDS011;66361;52.034;20.656;2023-02-01T15:05:30;6.90;;;3.92;;
77298;SDS011;66361;52.034;20.656;2023-02-01T15:09:36;4.75;;;3.67;;
77298;SDS011;66361;52.034;20.656;2023-02-01T15:13:47;5.30;;;3.80;;
77298;SDS011;66361;52.034;20.656;2023-02-01T15:17:56;6.93;;;3.50;;
77298;SDS011;66361;52.034;20.656;2023-02-01T15:22:13;6.78;;;3.63;;
77298;SDS011;66361;52.034;20.656;2023-02-01T15:26:24;9.32;;;4.97;;
77298;SDS011;66361;52.034;20.656;2023-02-01T15:30:29;8.82;;;5.57;;
77298;SDS011;66361;52.034;20.656;2023-02-01T15:34:49;8.32;;;4.75;;
77298;SDS011;66361;52.034;20.656;2023-02-01T15:39:14;6.38;;;3.97;;
77298;SDS011;66361;52.034;20.656;2023-02-01T15:43:24;5.30;;;3.70;;
77298;SDS011;66361;52.034;20.656;2023-02-01T15:47:28;3.72;;;3.17;;
77298;SDS011;66361;52.034;20.656;2023-02-01T15:51:35;5.25;;;4.65;;
77298;SDS011;66361;52.034;20.656;2023-02-01T15:55:39;6.80;;;4.07;;
77298;SDS011;66361;52.034;20.656;2023-02-01T15:59:44;3.95;;;3.10;;
77298;SDS011;66361;52.034;20.656;2023-02-01T16:03:48;6.22;;;3.63;;
77298;SDS011;66361;52.034;20.656;2023-02-01T16:07:57;4.22;;;2.85;;
77298;SDS011;66361;52.034;20.656;2023-02-01T16:12:19;3.50;;;2.80;;
77298;SDS011;66361;52.034;20.656;2023-02-01T16:16:29;7.90;;;5.18;;
77298;SDS011;66361;52.034;20.656;2023-02-01T16:20:32;8.40;;;5.28;;
77298;SDS011;66361;52.034;20.656;2023-02-01T16:24:39;3.22;;;2.97;;
77298;SDS011;66361;52.034;20.656;2023-02-01T16:28:45;7.88;;;4.40;;
77298;SDS011;66361;52.034;20.656;2023-02-01T16:32:49;7.40;;;4.63;;
77298;SDS011;66361;52.034;20.656;2023-02-01T16:36:56;6.55;;;4.57;;
77298;SDS011;66361;52.034;20.656;2023-02-01T16:41:01;8.57;;;4.10;;
77298;SDS011;66361;52.034;20.656;2023-02-01T16:45:07;4.57;;;3.97;;
77298;SDS011;66361;52.034;20.656;2023-02-01T16:49:15;5.07;;;3.78;;
77298;SDS011;66361;52.034;20.656;2023-02-01T16:53:24;6.95;;;4.95;;
77298;SDS011;66361;52.034;20.656;2023-02-01T16:57:35;7.43;;;5.18;;
77298;SDS011;66361;52.034;20.656;2023-02-01T17:01:39;4.93;;;3.85;;
77298;SDS011;66361;52.034;20.656;2023-02-01T17:05:47;7.40;;;3.80;;
77298;SDS011;66361;52.034;20.656;2023-02-01T17:09:54;5.03;;;4.05;;
77298;SDS011;66361;52.034;20.656;2023-02-01T17:14:04;7.90;;;4.72;;
77298;SDS011;66361;52.034;20.656;2023-02-01T17:18:17;7.60;;;5.10;;
77298;SDS011;66361;52.034;20.656;2023-02-01T17:22:21;7.25;;;5.40;;
77298;SDS011;66361;52.034;20.656;2023-02-01T17:26:29;8.82;;;4.03;;
77298;SDS011;66361;52.034;20.656;2023-02-01T17:30:35;7.75;;;5.43;;
77298;SDS011;66361;52.034;20.656;2023-02-01T17:34:42;7.72;;;4.63;;
77298;SDS011;66361;52.034;20.656;2023-02-01T17:38:47;13.30;;;7.13;;
77298;SDS011;66361;52.034;20.656;2023-02-01T17:43:04;6.95;;;4.70;;
77298;SDS011;66361;52.034;20.656;2023-02-01T17:47:13;6.72;;;3.78;;
77298;SDS011;66361;52.034;20.656;2023-02-01T17:51:18;11.20;;;5.25;;
77298;SDS011;66361;52.034;20.656;2023-02-01T17:55:23;6.38;;;3.33;;
77298;SDS011;66361;52.034;20.656;2023-02-01T17:59:28;3.88;;;3.38;;
77298;SDS011;66361;52.034;20.656;2023-02-01T18:07:36;6.68;;;4.18;;
77298;SDS011;66361;52.034;20.656;2023-02-01T18:11:39;5.10;;;3.50;;
77298;SDS011;66361;52.034;20.656;2023-02-01T18:15:42;3.78;;;2.35;;
77298;SDS011;66361;52.034;20.656;2023-02-01T18:19:47;12.10;;;6.47;;
77298;SDS011;66361;52.034;20.656;2023-02-01T18:23:50;9.38;;;5.00;;
77298;SDS011;66361;52.034;20.656;2023-02-01T18:27:53;7.00;;;3.20;;
77298;SDS011;66361;52.034;20.656;2023-02-01T18:31:57;2.40;;;2.20;;
77298;SDS011;66361;52.034;20.656;2023-02-01T18:36:02;6.65;;;2.92;;
77298;SDS011;66361;52.034;20.656;2023-02-01T18:40:08;4.90;;;3.33;;
77298;SDS011;66361;52.034;20.656;2023-02-01T18:44:16;5.97;;;3.88;;
77298;SDS011;66361;52.034;20.656;2023-02-01T18:48:21;9.73;;;4.88;;
77298;SDS011;66361;52.034;20.656;2023-02-01T18:52:27;5.72;;;4.75;;
77298;SDS011;66361;52.034;20.656;2023-02-01T18:56:30;5.65;;;3.60;;
77298;SDS011;66361;52.034;20.656;2023-02-01T19:00:34;2.47;;;2.08;;
77298;SDS011;66361;52.034;20.656;2023-02-01T19:08:43;10.38;;;3.72;;
77298;SDS011;66361;52.034;20.656;2023-02-01T19:12:47;7.70;;;4.55;;
77298;SDS011;66361;52.034;20.656;2023-02-01T19:16:51;11.40;;;4.88;;
77298;SDS011;66361;52.034;20.656;2023-02-01T19:20:55;14.88;;;4.60;;
77298;SDS011;66361;52.034;20.656;2023-02-01T19:25:11;8.05;;;5.45;;
77298;SDS011;66361;52.034;20.656;2023-02-01T19:29:18;7.10;;;4.05;;
77298;SDS011;66361;52.034;20.656;2023-02-01T19:33:22;8.43;;;5.47;;
77298;SDS011;66361;52.034;20.656;2023-02-01T19:37:25;7.13;;;3.63;;
77298;SDS011;66361;52.034;20.656;2023-02-01T19:41:30;9.75;;;3.63;;
77298;SDS011;66361;52.034;20.656;2023-02-01T19:45:33;10.32;;;4.03;;
77298;SDS011;66361;52.034;20.656;2023-02-01T19:53:42;7.40;;;4.15;;
77298;SDS011;66361;52.034;20.656;2023-02-01T19:57:47;3.08;;;2.70;;
77298;SDS011;66361;52.034;20.656;2023-02-01T20:01:51;15.80;;;5.78;;
77298;SDS011;66361;52.034;20.656;2023-02-01T20:05:58;7.47;;;4.53;;
77298;SDS011;66361;52.034;20.656;2023-02-01T20:10:04;3.38;;;2.83;;
77298;SDS011;66361;52.034;20.656;2023-02-01T20:14:10;10.15;;;4.53;;
77298;SDS011;66361;52.034;20.656;2023-02-01T20:18:14;4.78;;;4.05;;
77298;SDS011;66361;52.034;20.656;2023-02-01T20:22:18;11.20;;;5.22;;
77298;SDS011;66361;52.034;20.656;2023-02-01T20:26:21;9.73;;;4.78;;
77298;SDS011;66361;52.034;20.656;2023-02-01T20:30:27;6.97;;;4.28;;
77298;SDS011;66361;52.034;20.656;2023-02-01T20:34:32;8.75;;;3.85;;
77298;SDS011;66361;52.034;20.656;2023-02-01T20:38:35;3.15;;;2.60;;
77298;SDS011;66361;52.034;20.656;2023-02-01T20:42:40;6.32;;;3.38;;
77298;SDS011;66361;52.034;20.656;2023-02-01T20:46:45;8.88;;;3.63;;
77298;SDS011;66361;52.034;20.656;2023-02-01T20:50:51;8.75;;;4.65;;
77298;SDS011;66361;52.034;20.656;2023-02-01T20:54:55;6.82;;;4.70;;
77298;SDS011;66361;52.034;20.656;2023-02-01T20:59:01;8.45;;;4.57;;
77298;SDS011;66361;52.034;20.656;2023-02-01T21:03:13;12.60;;;5.03;;
77298;SDS011;66361;52.034;20.656;2023-02-01T21:07:17;11.23;;;6.38;;
77298;SDS011;66361;52.034;20.656;2023-02-01T21:11:20;6.90;;;3.47;;
77298;SDS011;66361;52.034;20.656;2023-02-01T21:15:24;9.13;;;4.85;;
77298;SDS011;66361;52.034;20.656;2023-02-01T21:19:30;6.82;;;3.88;;
77298;SDS011;66361;52.034;20.656;2023-02-01T21:23:47;7.25;;;4.53;;
77298;SDS011;66361;52.034;20.656;2023-02-01T21:27:50;4.53;;;2.90;;
77298;SDS011;66361;52.034;20.656;2023-02-01T21:31:55;6.63;;;4.93;;
77298;SDS011;66361;52.034;20.656;2023-02-01T21:36:01;10.30;;;4.88;;
77298;SDS011;66361;52.034;20.656;2023-02-01T21:40:04;4.38;;;3.05;;
77298;SDS011;66361;52.034;20.656;2023-02-01T21:44:09;9.15;;;4.07;;
77298;SDS011;66361;52.034;20.656;2023-02-01T21:48:14;14.85;;;4.82;;
77298;SDS011;66361;52.034;20.656;2023-02-01T21:52:28;13.32;;;5.90;;
77298;SDS011;66361;52.034;20.656;2023-02-01T21:56:32;5.88;;;4.78;;
77298;SDS011;66361;52.034;20.656;2023-02-01T22:00:35;10.05;;;5.78;;
77298;SDS011;66361;52.034;20.656;2023-02-01T22:04:39;11.05;;;5.40;;
77298;SDS011;66361;52.034;20.656;2023-02-01T22:08:45;12.30;;;5.78;;
77298;SDS011;66361;52.034;20.656;2023-02-01T22:12:49;9.02;;;5.00;;
77298;SDS011;66361;52.034;20.656;2023-02-01T22:16:52;8.00;;;4.90;;
77298;SDS011;66361;52.034;20.656;2023-02-01T22:20:58;11.50;;;5.88;;
77298;SDS011;66361;52.034;20.656;2023-02-01T22:25:05;8.75;;;5.25;;
77298;SDS011;66361;52.034;20.656;2023-02-01T22:29:10;5.55;;;3.78;;
77298;SDS011;66361;52.034;20.656;2023-02-01T22:33:15;8.48;;;5.32;;
77298;SDS011;66361;52.034;20.656;2023-02-01T22:41:22;7.13;;;3.83;;
77298;SDS011;66361;52.034;20.656;2023-02-01T22:45:26;11.88;;;5.90;;
77298;SDS011;66361;52.034;20.656;2023-02-01T22:49:30;13.27;;;6.30;;
77298;SDS011;66361;52.034;20.656;2023-02-01T22:53:33;10.50;;;5.82;;
77298;SDS011;66361;52.034;20.656;2023-02-01T22:57:37;10.38;;;6.15;;
77298;SDS011;66361;52.034;20.656;2023-02-01T23:01:41;5.07;;;3.33;;
77298;SDS011;66361;52.034;20.656;2023-02-01T23:05:47;11.50;;;7.80;;
77298;SDS011;66361;52.034;20.656;2023-02-01T23:13:55;10.90;;;6.20;;
77298;SDS011;66361;52.034;20.656;2023-02-01T23:17:59;11.90;;;6.65;;
77298;SDS011;66361;52.034;20.656;2023-02-01T23:22:02;8.18;;;4.20;;
77298;SDS011;66361;52.034;20.656;2023-02-01T23:26:06;9.23;;;5.97;;
77298;SDS011;66361;52.034;20.656;2023-02-01T23:30:11;10.98;;;6.50;;
77298;SDS011;66361;52.034;20.656;2023-02-01T23:34:16;6.57;;;5.07;;
77298;SDS011;66361;52.034;20.656;2023-02-01T23:38:20;11.32;;;7.47;;
77298;SDS011;66361;52.034;20.656;2023-02-01T23:42:23;9.68;;;5.55;;
77298;SDS011;66361;52.034;20.656;2023-02-01T23:50:36;13.38;;;7.45;;
77298;SDS011;66361;52.034;20.656;2023-02-01T23:54:39;15.57;;;7.93;;
77298;SDS011;66361;52.034;20.656;2023-02-01T23:58:42;9.40;;;5.60;;
